Charles B. Wheeler Downtown Airport
KMKC : now visible

Airfield :











YOU CAN JOIN US ON...

 
LOGIN :

Register | Disclaimer

   EN    FR    IT 

 









Legend :    VFR   Marginal VFR   IFR   Intensive IFR   Very Intensive IFR
Visi :
Ceiling :
>= 8 km
>= 3000ft
5 to 8 km
1000 to 3000 ft
1500m to 5 km
500 to 1000 ft
800 to 1500m
200 to 500 ft
< 800m
< 200 ft
Symbols :   Thunderstorms  Fog  Heavy snow  Heavy precipitations  Wind > 20 kt






- Airport Elevation : 759 ft
- IATA code : MKC


KMKC - Charles B. Wheeler Downtown

CURRENT METAR :
  • 280054Z 11006KT 10SM CLR 26/10 A2990 RMK AO2 SLP119 T02560100

EXPIRED METARs :
  • 272354Z VRB04KT 10SM CLR 26/10 A2989 RMK AO2 SLP119 T02610100 10267 20222 56016
  • 272254Z 00000KT 10SM CLR 26/11 A2990 RMK AO2 SLP122 T02610111

TAF KMKC
Valid from the 28 at 00:00 until the 29 at 00:00 UTC


272320Z 2800/2824 VRB05KT P6SM SKC
FM280200 16006KT P6SM SCT250
FM281500 18015G23KT P6SM BKN250
KZKC FIR / North America



MET'MAP, your aeronautical weather chart ! - Copyright ORBIFLY December 2007 - Disclaimer

ORBIFLY MET'MAP TEAM :

Programming & Development : Alexandra Zaïnal
Original concept : Baudouin d'Aumeries
Technical & hardware support : Manuel Goepfert
Assistance : Marc-Olivier Méhu

Contact : metmap@orbifly.com




SOURCES & CREDITS :

   NOAA       Earth
Advisory